Time;durP1;ratioP1;P1;durP2;ratioP2;P2;SDS_P1;SDS_P2;PMS_P1;PMS_P2;Temp;Humidity;BMP_temperature;BMP_pressure;BME280_temperature;BME280_humidity;BME280_pressure;Samples;Min_cycle;Max_cycle;Signal;HPM_P1;HPM_P2
2021/01/23 00:00:52;;;;;;;23.77;14.25;;;;;;;1.05;94.11;99617.97;5086369;28;20058;-77
2021/01/23 00:03:18;;;;;;;25.85;14.35;;;;;;;1.02;94.10;99613.66;5074449;23;20046;-76
2021/01/23 00:05:44;;;;;;;31.52;14.15;;;;;;;1.00;94.13;99617.78;5014119;28;20476;-77
2021/01/23 00:08:09;;;;;;;27.85;15.02;;;;;;;0.96;94.27;99610.84;5014249;28;20025;-77
2021/01/23 00:10:35;;;;;;;26.55;13.20;;;;;;;1.22;94.56;99614.47;5014803;28;20026;-79
2021/01/23 00:13:00;;;;;;;26.77;15.27;;;;;;;1.13;94.58;99617.50;5014993;28;20045;-78
2021/01/23 00:15:25;;;;;;;26.73;14.80;;;;;;;1.18;94.16;99613.47;5015229;28;20098;-80
2021/01/23 00:17:51;;;;;;;32.80;15.77;;;;;;;1.27;94.19;99602.88;5013942;28;20280;-78
2021/01/23 00:20:16;;;;;;;30.33;17.45;;;;;;;1.22;93.96;99612.81;5015071;28;20265;-78
2021/01/23 00:22:41;;;;;;;27.20;16.10;;;;;;;1.10;94.11;99613.97;5014669;28;20369;-76
2021/01/23 00:25:07;;;;;;;25.60;13.17;;;;;;;1.11;94.14;99608.13;5013681;28;21000;-79
2021/01/23 00:27:32;;;;;;;27.63;14.40;;;;;;;1.08;94.40;99610.53;5014369;28;20782;-79
2021/01/23 00:29:58;;;;;;;28.65;13.98;;;;;;;1.07;94.29;99597.00;5014332;28;20530;-80
2021/01/23 00:32:24;;;;;;;27.13;12.80;;;;;;;1.14;94.40;99591.41;5015389;28;20104;-78
2021/01/23 00:34:49;;;;;;;25.70;13.90;;;;;;;1.20;94.44;99594.16;5014323;28;20036;-78
2021/01/23 00:37:14;;;;;;;20.77;12.47;;;;;;;1.16;94.14;99587.25;5013576;28;20042;-79
2021/01/23 00:39:39;;;;;;;24.13;12.77;;;;;;;1.21;94.27;99588.31;5015201;28;20277;-79
2021/01/23 00:42:05;;;;;;;22.70;13.37;;;;;;;1.17;94.15;99591.53;5014574;28;20061;-79
2021/01/23 00:44:30;;;;;;;31.73;13.50;;;;;;;1.15;94.36;99585.53;5013993;28;20034;-79
2021/01/23 00:46:55;;;;;;;22.80;13.10;;;;;;;1.23;94.15;99581.66;5015936;28;20026;-79
2021/01/23 00:49:23;;;;;;;23.43;12.13;;;;;;;1.34;94.21;99584.63;5013700;28;20640;-78
2021/01/23 00:51:48;;;;;;;23.17;11.00;;;;;;;1.38;93.88;99568.75;5013606;28;20339;-78
2021/01/23 00:54:13;;;;;;;23.00;11.70;;;;;;;1.43;93.87;99572.34;5015191;28;20483;-78
2021/01/23 00:56:38;;;;;;;24.00;12.27;;;;;;;1.52;93.93;99567.63;5013580;28;20268;-79
2021/01/23 00:59:04;;;;;;;21.40;12.00;;;;;;;1.58;94.09;99561.06;5014773;28;20036;-80
2021/01/23 01:01:29;;;;;;;27.98;11.50;;;;;;;1.59;93.88;99571.25;5013477;28;20033;-79
2021/01/23 01:03:54;;;;;;;22.15;11.98;;;;;;;1.68;93.74;99566.56;5013576;28;20108;-78
2021/01/23 01:06:20;;;;;;;19.83;11.13;;;;;;;1.71;93.04;99560.75;5013554;28;20053;-80
2021/01/23 01:08:45;;;;;;;19.10;11.33;;;;;;;1.70;93.33;99569.16;5013703;28;20288;-78
2021/01/23 01:11:10;;;;;;;17.70;10.17;;;;;;;1.63;93.15;99563.00;5013373;28;20080;-79
2021/01/23 01:13:35;;;;;;;20.27;11.27;;;;;;;1.67;92.34;99564.84;5013435;28;20275;-79
2021/01/23 01:16:01;;;;;;;20.57;11.53;;;;;;;1.65;92.79;99556.31;5014872;28;20092;-78
2021/01/23 01:18:26;;;;;;;20.17;10.95;;;;;;;1.61;92.74;99559.50;5012739;28;20308;-79
2021/01/23 01:20:51;;;;;;;23.13;10.43;;;;;;;1.62;92.65;99560.38;5013205;28;20040;-78
2021/01/23 01:23:16;;;;;;;22.00;11.00;;;;;;;1.66;93.13;99557.19;5013817;28;20033;-79
2021/01/23 01:25:42;;;;;;;20.23;11.20;;;;;;;1.68;92.83;99553.91;5013718;28;20287;-80
2021/01/23 01:28:07;;;;;;;20.83;10.97;;;;;;;1.71;92.97;99551.50;5012683;28;20017;-80
2021/01/23 01:30:32;;;;;;;25.43;11.07;;;;;;;1.72;93.12;99559.94;5013295;28;20284;-79
2021/01/23 01:32:58;;;;;;;21.40;10.40;;;;;;;1.83;93.02;99551.06;5014084;28;20092;-79
2021/01/23 01:35:23;;;;;;;21.58;10.60;;;;;;;1.96;92.83;99553.28;5013613;28;20026;-78
2021/01/23 01:37:48;;;;;;;21.00;11.75;;;;;;;1.91;92.66;99551.34;5012527;28;20022;-78
2021/01/23 01:40:14;;;;;;;22.60;12.20;;;;;;;1.94;92.63;99551.47;5012521;28;20411;-78
2021/01/23 01:42:39;;;;;;;23.70;12.02;;;;;;;2.01;92.75;99553.44;5013733;28;20285;-76
2021/01/23 01:45:05;;;;;;;26.45;11.70;;;;;;;2.01;92.56;99554.31;5016940;28;20022;-79
2021/01/23 01:47:32;;;;;;;;;;;;;;;1.99;92.80;99552.53;5017931;28;20103;-79
2021/01/23 01:49:58;;;;;;;25.73;11.47;;;;;;;2.02;93.06;99545.91;5014145;28;20020;-80
2021/01/23 01:52:23;;;;;;;19.80;12.05;;;;;;;2.07;93.10;99546.94;5015424;28;20031;-79
2021/01/23 01:54:50;;;;;;;25.33;12.02;;;;;;;2.07;92.86;99544.38;5014376;28;20029;-79
2021/01/23 01:57:19;;;;;;;23.60;12.20;;;;;;;2.08;93.29;99537.66;5015097;28;20045;-79
2021/01/23 01:59:44;;;;;;;24.23;12.00;;;;;;;2.11;93.35;99542.81;5013288;28;20030;-80
2021/01/23 02:02:57;;;;;;;23.17;12.80;;;;;;;2.17;93.73;99535.44;5015742;28;20499;-77
2021/01/23 02:05:27;;;;;;;27.13;12.90;;;;;;;2.24;93.55;99532.31;5014617;28;20279;-78
2021/01/23 02:08:05;;;;;;;24.53;13.40;;;;;;;2.29;93.36;99527.44;5015309;28;20029;-79
2021/01/23 02:10:54;;;;;;;23.03;13.23;;;;;;;2.28;93.57;99533.31;5014433;28;20088;-79
2021/01/23 02:13:31;;;;;;;26.00;14.33;;;;;;;2.34;93.14;99533.53;5015010;28;20044;-78
2021/01/23 02:16:03;;;;;;;25.93;14.27;;;;;;;2.31;93.39;99541.88;5014457;28;20018;-78
2021/01/23 02:18:37;;;;;;;27.27;12.93;;;;;;;2.33;93.35;99532.66;5013849;28;20057;-79
2021/01/23 02:21:25;;;;;;;25.03;13.70;;;;;;;2.43;93.48;99534.69;5015617;28;20026;-80
2021/01/23 02:23:52;;;;;;;27.07;13.60;;;;;;;2.44;93.17;99528.81;5013654;28;20104;-78
2021/01/23 02:26:45;;;;;;;27.47;14.23;;;;;;;2.40;93.42;99527.00;5012378;28;20063;-78
2021/01/23 02:29:16;;;;;;;25.93;13.90;;;;;;;2.42;93.42;99524.50;5013526;28;20048;-79
2021/01/23 02:31:45;;;;;;;34.47;15.43;;;;;;;2.45;93.64;99517.88;5008431;28;20033;-76
2021/01/23 02:34:16;;;;;;;25.07;14.93;;;;;;;2.56;93.22;99524.97;5011336;28;20026;-79
2021/01/23 02:36:43;;;;;;;30.93;13.87;;;;;;;2.56;93.13;99527.50;5010752;28;20026;-77
2021/01/23 02:39:10;;;;;;;30.03;14.23;;;;;;;2.59;92.96;99532.69;5012108;28;20014;-77
2021/01/23 02:41:35;;;;;;;28.50;14.97;;;;;;;2.62;92.97;99527.75;5012416;28;20026;-77
2021/01/23 02:44:01;;;;;;;32.60;15.68;;;;;;;2.66;92.96;99520.28;5011976;28;20041;-78
2021/01/23 02:46:26;;;;;;;27.42;15.77;;;;;;;2.66;92.98;99527.03;5013168;28;20087;-79
2021/01/23 02:48:52;;;;;;;26.50;15.07;;;;;;;2.61;93.05;99511.66;5011420;28;20048;-77
2021/01/23 02:51:23;;;;;;;25.50;14.52;;;;;;;2.60;93.00;99515.03;5011441;28;20400;-78
2021/01/23 02:53:52;;;;;;;27.60;14.83;;;;;;;2.59;93.02;99507.34;5010588;28;20041;-78
2021/01/23 02:56:24;;;;;;;23.93;14.37;;;;;;;2.62;92.84;99510.00;5011625;28;20025;-79
2021/01/23 02:58:51;;;;;;;23.20;14.70;;;;;;;2.55;92.76;99505.50;5013096;28;20028;-78
2021/01/23 03:01:20;;;;;;;29.40;16.27;;;;;;;2.52;92.67;99502.88;5011704;28;20586;-79
2021/01/23 03:03:46;;;;;;;26.10;14.57;;;;;;;2.46;92.75;99504.38;5011486;28;20053;-79
2021/01/23 03:06:11;;;;;;;24.92;14.73;;;;;;;2.55;92.91;99510.56;5014305;28;20057;-80
2021/01/23 03:08:43;;;;;;;24.33;15.40;;;;;;;2.51;92.97;99509.63;5013589;28;20029;-80
2021/01/23 03:11:08;;;;;;;28.83;14.53;;;;;;;2.52;92.97;99502.88;5012279;28;20026;-79
2021/01/23 03:13:34;;;;;;;27.90;14.82;;;;;;;2.57;92.80;99499.69;5011578;28;20155;-78
2021/01/23 03:16:00;;;;;;;21.13;12.48;;;;;;;2.62;92.77;99503.25;5013492;28;20129;-78
2021/01/23 03:18:25;;;;;;;24.25;13.23;;;;;;;2.63;92.96;99501.59;5012147;28;20049;-79
2021/01/23 03:20:50;;;;;;;25.90;13.50;;;;;;;2.58;92.96;99496.31;5014763;28;20475;-80
2021/01/23 03:23:16;;;;;;;20.83;12.75;;;;;;;2.57;93.05;99489.53;5017598;28;20041;-78
2021/01/23 03:25:41;;;;;;;22.58;13.20;;;;;;;2.53;93.02;99491.91;5017937;28;20295;-78
2021/01/23 03:28:06;;;;;;;26.87;13.47;;;;;;;2.51;92.55;99486.81;5013100;28;20116;-77
2021/01/23 03:30:32;;;;;;;29.97;13.40;;;;;;;2.56;92.74;99481.88;5013177;28;20293;-78
2021/01/23 03:32:57;;;;;;;21.60;12.90;;;;;;;2.52;92.72;99485.13;5012933;28;20030;-79
2021/01/23 03:35:23;;;;;;;19.70;12.90;;;;;;;2.49;92.66;99484.22;5013662;28;20029;-79
2021/01/23 03:37:48;;;;;;;21.80;13.45;;;;;;;2.44;93.08;99477.28;5013890;28;20072;-80
2021/01/23 03:40:14;;;;;;;25.60;15.05;;;;;;;2.45;93.14;99479.84;5014753;28;20103;-78
2021/01/23 03:42:40;;;;;;;25.75;14.27;;;;;;;2.39;93.11;99483.88;5012369;28;20562;-78
2021/01/23 03:45:07;;;;;;;22.17;13.50;;;;;;;2.41;93.38;99472.97;5013028;28;20459;-78
2021/01/23 03:47:32;;;;;;;25.00;14.13;;;;;;;2.38;93.27;99479.59;5012504;28;20126;-78
2021/01/23 03:49:57;;;;;;;23.48;13.68;;;;;;;2.42;93.12;99472.16;5013871;28;20050;-79
2021/01/23 03:52:23;;;;;;;22.87;13.33;;;;;;;2.42;93.34;99472.16;5013641;28;20026;-78
2021/01/23 03:54:48;;;;;;;21.30;13.73;;;;;;;2.39;93.65;99469.53;5012589;28;20359;-80
2021/01/23 03:57:13;;;;;;;24.37;14.43;;;;;;;2.28;93.49;99475.91;5012459;28;20148;-78
2021/01/23 03:59:38;;;;;;;28.67;14.97;;;;;;;2.24;93.71;99468.97;5011927;28;20283;-77
2021/01/23 04:02:04;;;;;;;24.65;13.45;;;;;;;2.31;93.67;99476.00;5012371;28;20033;-78
2021/01/23 04:04:29;;;;;;;27.75;14.25;;;;;;;2.25;93.46;99480.84;5011452;28;20400;-79
2021/01/23 04:06:56;;;;;;;29.20;14.70;;;;;;;2.23;93.62;99468.94;5011898;28;20038;-80
2021/01/23 04:09:21;;;;;;;22.83;13.20;;;;;;;2.22;93.59;99478.19;5011064;28;20080;-79
2021/01/23 04:11:47;;;;;;;24.73;13.15;;;;;;;2.16;93.34;99472.91;5012713;28;20022;-79
2021/01/23 04:14:12;;;;;;;23.60;14.05;;;;;;;2.11;93.72;99475.31;5016965;28;20030;-79
2021/01/23 04:16:37;;;;;;;24.80;13.32;;;;;;;2.23;93.90;99482.44;5016567;28;20084;-78
2021/01/23 04:19:04;;;;;;;29.80;14.63;;;;;;;2.15;93.81;99481.34;5015929;28;20026;-78
2021/01/23 04:21:30;;;;;;;26.17;14.20;;;;;;;2.25;94.18;99485.91;5014545;28;20287;-79
2021/01/23 04:23:55;;;;;;;25.58;14.00;;;;;;;2.36;94.20;99479.56;5015971;28;20512;-78
2021/01/23 04:26:20;;;;;;;27.25;14.77;;;;;;;2.36;94.10;99476.16;5015230;28;20022;-79
2021/01/23 04:28:46;;;;;;;24.47;15.03;;;;;;;2.37;94.11;99470.28;5014700;28;20076;-79
2021/01/23 04:31:11;;;;;;;27.23;14.85;;;;;;;2.41;94.14;99467.91;5014571;28;20825;-77
2021/01/23 04:33:36;;;;;;;22.67;13.50;;;;;;;2.48;93.77;99459.69;5016365;28;20037;-80
2021/01/23 04:36:02;;;;;;;24.83;13.75;;;;;;;2.53;93.83;99461.50;5014749;28;20033;-78
2021/01/23 04:38:28;;;;;;;;;;;;;;;2.53;93.60;99461.50;5014294;28;20026;-78
2021/01/23 04:40:57;;;;;;;24.53;12.13;;;;;;;2.62;93.45;99464.38;5016071;28;19913;-79
2021/01/23 04:43:23;;;;;;;20.20;11.97;;;;;;;2.71;93.09;99459.59;5015419;28;20104;-77
2021/01/23 04:45:48;;;;;;;19.40;10.32;;;;;;;2.71;92.92;99462.13;5014673;28;20037;-78
2021/01/23 04:48:15;;;;;;;20.75;11.43;;;;;;;2.70;93.24;99457.88;5014697;28;20022;-78
2021/01/23 04:50:41;;;;;;;17.77;10.93;;;;;;;2.74;93.19;99454.63;5014078;28;20022;-78
2021/01/23 04:53:06;;;;;;;19.23;10.17;;;;;;;2.78;93.01;99457.28;5013954;28;20026;-77
2021/01/23 04:55:31;;;;;;;13.20;9.60;;;;;;;2.83;92.60;99454.03;5013679;28;20368;-77
2021/01/23 04:57:57;;;;;;;19.30;9.55;;;;;;;2.87;92.27;99454.19;5015471;28;20025;-76
2021/01/23 05:00:22;;;;;;;16.50;9.98;;;;;;;2.85;92.16;99457.47;5016371;28;20396;-81
2021/01/23 05:02:59;;;;;;;17.23;9.23;;;;;;;2.82;92.08;99455.72;5016995;28;20026;-79
2021/01/23 05:05:24;;;;;;;15.38;10.20;;;;;;;2.79;92.40;99456.47;5013629;28;20289;-79
2021/01/23 05:07:49;;;;;;;18.65;10.02;;;;;;;2.79;92.42;99453.09;5015038;28;20022;-78
2021/01/23 05:10:27;;;;;;;15.03;9.10;;;;;;;2.84;92.17;99453.22;5014593;28;20022;-79
2021/01/23 05:12:54;;;;;;;12.47;7.40;;;;;;;2.85;91.98;99455.81;5012303;28;20018;-78
2021/01/23 05:15:28;;;;;;;14.70;7.83;;;;;;;2.88;91.91;99460.97;5014317;28;20025;-79
2021/01/23 05:18:00;;;;;;;14.23;7.73;;;;;;;2.84;92.06;99454.09;5015689;28;20072;-78
2021/01/23 05:20:36;;;;;;;14.37;7.87;;;;;;;2.88;91.78;99455.91;5013185;28;20157;-80
2021/01/23 05:23:05;;;;;;;13.23;7.82;;;;;;;2.84;92.06;99459.16;5013954;28;20053;-79
2021/01/23 05:25:32;;;;;;;14.80;7.30;;;;;;;2.90;92.01;99455.94;5015697;28;20057;-79
2021/01/23 05:27:59;;;;;;;11.90;6.97;;;;;;;2.91;92.03;99458.53;5017019;28;20041;-78
2021/01/23 05:30:37;;;;;;;13.40;6.93;;;;;;;2.94;91.32;99456.13;5016825;28;20030;-79
2021/01/23 05:33:08;;;;;;;15.27;6.90;;;;;;;2.90;91.47;99463.56;5014433;28;20499;-79
2021/01/23 05:35:34;;;;;;;11.37;6.90;;;;;;;2.88;91.51;99460.97;5013071;28;20514;-80
2021/01/23 05:38:16;;;;;;;13.60;6.47;;;;;;;2.89;92.00;99461.84;5011677;28;20029;-78
2021/01/23 05:40:41;;;;;;;12.13;7.20;;;;;;;2.94;91.94;99461.19;5015927;28;20022;-79
2021/01/23 05:43:07;;;;;;;11.70;6.65;;;;;;;2.93;91.84;99454.41;5013767;28;20561;-79
2021/01/23 05:45:32;;;;;;;12.10;6.47;;;;;;;2.91;91.93;99458.53;5013789;28;20443;-79
2021/01/23 05:48:08;;;;;;;12.43;5.77;;;;;;;2.99;91.78;99452.06;5013707;28;20296;-80
2021/01/23 05:50:33;;;;;;;12.47;6.30;;;;;;;3.04;91.43;99444.59;5013830;28;20048;-79
2021/01/23 05:52:58;;;;;;;10.20;5.80;;;;;;;2.95;91.33;99447.69;5014096;28;20389;-77
2021/01/23 05:55:23;;;;;;;8.83;5.00;;;;;;;2.96;91.55;99446.03;5012835;28;20272;-77
2021/01/23 05:57:49;;;;;;;16.20;5.47;;;;;;;2.96;91.34;99449.41;5012383;28;20022;-79
2021/01/23 06:00:15;;;;;;;12.25;5.47;;;;;;;2.91;91.68;99440.78;5012126;28;20055;-78
2021/01/23 06:02:40;;;;;;;;;;;;;;;2.94;91.50;99435.84;5012749;28;20613;-77
2021/01/23 06:05:13;;;;;;;10.97;6.40;;;;;;;2.90;91.59;99428.06;5047305;23;19925;-77
2021/01/23 06:07:47;;;;;;;15.43;6.23;;;;;;;2.86;91.37;99439.78;5030213;28;20479;-77
2021/01/23 06:10:21;;;;;;;12.60;6.13;;;;;;;2.79;91.41;99440.41;5031491;28;20120;-78
2021/01/23 06:12:46;;;;;;;14.03;6.50;;;;;;;2.73;91.35;99438.53;5031747;28;20033;-76
2021/01/23 06:15:30;;;;;;;14.90;6.90;;;;;;;2.68;91.62;99439.22;5047023;28;20400;-78
2021/01/23 06:17:56;;;;;;;15.97;7.17;;;;;;;2.66;91.62;99439.16;5029996;28;20144;-78
2021/01/23 06:20:39;;;;;;;12.10;6.70;;;;;;;2.66;92.26;99461.97;5031772;28;20491;-76
2021/01/23 06:23:05;;;;;;;15.13;6.03;;;;;;;2.65;91.88;99462.78;5031621;28;20109;-76
2021/01/23 06:25:51;;;;;;;13.15;6.75;;;;;;;2.62;92.09;99471.97;5030282;28;20025;-78
2021/01/23 06:28:22;;;;;;;13.13;6.67;;;;;;;2.66;92.52;99476.31;5026670;28;20638;-77
2021/01/23 06:30:50;;;;;;;13.73;6.60;;;;;;;2.76;92.31;99481.75;5031285;28;20057;-77
2021/01/23 06:33:21;;;;;;;13.27;6.40;;;;;;;2.73;92.65;99486.72;5031309;28;20029;-76
2021/01/23 06:35:46;;;;;;;14.03;5.80;;;;;;;2.81;92.08;99486.97;5030484;28;20052;-76
2021/01/23 06:38:12;;;;;;;14.15;6.85;;;;;;;2.86;92.11;99477.81;5029884;28;20021;-78
2021/01/23 06:40:37;;;;;;;11.10;5.85;;;;;;;2.89;91.91;99461.84;5030132;28;20031;-76
2021/01/23 06:43:04;;;;;;;13.27;6.60;;;;;;;2.87;91.68;99473.59;5030097;28;20415;-77
2021/01/23 06:45:34;;;;;;;12.10;8.13;;;;;;;2.80;92.04;99477.63;5031129;28;20276;-77
2021/01/23 06:48:00;;;;;;;12.93;5.97;;;;;;;2.86;91.94;99480.34;5029607;28;20024;-76
2021/01/23 06:50:27;;;;;;;10.02;6.00;;;;;;;2.74;91.87;99474.91;5031047;28;20035;-77
2021/01/23 06:52:52;;;;;;;12.00;5.17;;;;;;;2.62;92.17;99474.50;5029884;28;20033;-77
2021/01/23 06:55:38;;;;;;;13.55;5.32;;;;;;;2.62;92.28;99472.84;5029870;28;20025;-77
2021/01/23 06:58:04;;;;;;;13.57;5.83;;;;;;;2.60;92.02;99483.69;5029646;28;20021;-75
2021/01/23 07:00:34;;;;;;;8.43;5.40;;;;;;;2.57;92.37;99479.41;5030955;28;20029;-77
2021/01/23 07:03:20;;;;;;;10.40;5.27;;;;;;;2.64;92.04;99475.41;5029867;28;20028;-76
2021/01/23 07:05:56;;;;;;;11.33;5.63;;;;;;;2.63;91.97;99477.09;5029994;28;20040;-76
2021/01/23 07:08:23;;;;;;;;;;;;;;;2.54;92.13;99473.38;5029419;28;20399;-77
2021/01/23 07:11:07;;;;;;;9.17;5.40;;;;;;;2.49;92.20;99470.69;5029971;28;19955;-77
2021/01/23 07:13:33;;;;;;;9.40;5.50;;;;;;;2.43;92.36;99466.28;5029963;28;20087;-74
2021/01/23 07:15:58;;;;;;;12.18;6.30;;;;;;;2.41;92.12;99462.81;5030557;28;20029;-76
2021/01/23 07:18:25;;;;;;;13.53;7.23;;;;;;;2.35;91.97;99462.63;5027975;28;20113;-78
2021/01/23 07:20:50;;;;;;;12.37;6.37;;;;;;;2.30;92.47;99481.03;5028360;28;20637;-77
2021/01/23 07:23:15;;;;;;;10.75;5.68;;;;;;;2.30;92.34;99483.56;5030337;28;20026;-75
2021/01/23 07:25:41;;;;;;;9.07;5.25;;;;;;;2.18;91.93;99482.28;5029637;28;20063;-76
2021/01/23 07:28:07;;;;;;;7.80;4.97;;;;;;;2.06;92.25;99489.47;5045468;28;20515;-78
2021/01/23 07:30:32;;;;;;;8.57;4.35;;;;;;;2.21;91.79;99489.13;5028560;28;20068;-76
2021/01/23 07:32:57;;;;;;;9.10;5.18;;;;;;;2.15;91.88;99494.00;5029267;28;20048;-76
2021/01/23 07:35:23;;;;;;;8.90;4.72;;;;;;;2.04;92.30;99482.63;5029278;28;20030;-77
2021/01/23 07:37:56;;;;;;;6.93;4.70;;;;;;;2.02;92.24;99491.84;5029815;28;20639;-77
2021/01/23 07:40:24;;;;;;;10.27;5.07;;;;;;;2.01;92.56;99490.13;5030251;28;20018;-77
2021/01/23 07:42:51;;;;;;;11.13;5.80;;;;;;;2.04;92.52;99506.28;5030318;28;20045;-78
2021/01/23 07:45:17;;;;;;;12.77;5.80;;;;;;;2.05;92.72;99508.00;5030337;28;20090;-77
2021/01/23 07:48:05;;;;;;;14.00;6.40;;;;;;;2.05;92.54;99504.63;5032565;28;20075;-78
2021/01/23 07:50:38;;;;;;;17.07;6.00;;;;;;;2.03;92.80;99506.25;5034526;28;20502;-78
2021/01/23 07:53:20;;;;;;;15.40;5.73;;;;;;;1.95;92.90;99521.16;5033796;28;20034;-77
2021/01/23 07:55:46;;;;;;;10.67;5.97;;;;;;;1.95;92.96;99522.81;5032747;28;20406;-76
2021/01/23 07:58:12;;;;;;;;;;;;;;;2.02;93.28;99527.31;5034572;28;20039;-78
2021/01/23 08:00:38;;;;;;;13.33;6.43;;;;;;;2.08;93.38;99525.84;5032845;28;20003;-78
2021/01/23 08:03:05;;;;;;;12.00;7.07;;;;;;;2.26;93.26;99518.03;5034159;28;20501;-76
2021/01/23 08:05:50;;;;;;;14.47;7.13;;;;;;;2.22;93.08;99521.25;5049332;28;20028;-76
2021/01/23 08:08:31;;;;;;;12.33;6.77;;;;;;;2.32;93.23;99530.94;5034171;28;20510;-76
2021/01/23 08:10:58;;;;;;;14.73;8.03;;;;;;;2.47;92.82;99528.91;5033983;28;20037;-77
2021/01/23 08:13:26;;;;;;;14.70;6.20;;;;;;;2.61;92.13;99533.63;5034131;28;20041;-77
2021/01/23 08:15:52;;;;;;;15.83;6.73;;;;;;;2.69;92.61;99533.06;5034083;28;20087;-76
2021/01/23 08:18:19;;;;;;;17.85;6.65;;;;;;;2.80;92.55;99535.94;5033622;28;20029;-78
2021/01/23 08:20:46;;;;;;;17.30;6.80;;;;;;;2.78;92.23;99542.66;5034133;28;20036;-76
2021/01/23 08:23:12;;;;;;;12.95;5.95;;;;;;;2.72;91.91;99535.69;5049223;28;20031;-76
2021/01/23 08:25:55;;;;;;;13.23;6.90;;;;;;;2.70;91.81;99541.53;5049026;28;20521;-77
2021/01/23 08:28:35;;;;;;;11.07;6.00;;;;;;;2.77;92.13;99539.25;5049111;28;20060;-77
2021/01/23 08:31:12;;;;;;;14.13;6.40;;;;;;;2.89;92.20;99541.31;5034084;28;20091;-77
2021/01/23 08:33:37;;;;;;;10.60;6.20;;;;;;;3.00;92.23;99547.63;5032811;28;20447;-77
2021/01/23 08:36:03;;;;;;;15.07;7.38;;;;;;;3.13;91.88;99554.81;5033104;28;20112;-77
2021/01/23 08:38:29;;;;;;;12.60;6.38;;;;;;;3.18;91.56;99546.47;5048137;28;20067;-77
2021/01/23 08:40:54;;;;;;;13.88;6.38;;;;;;;3.29;91.43;99548.56;5049251;28;20033;-79
2021/01/23 08:43:19;;;;;;;12.77;6.37;;;;;;;3.38;90.69;99545.44;5032168;28;20099;-78
2021/01/23 08:45:45;;;;;;;13.00;5.87;;;;;;;3.37;90.15;99542.06;5031623;28;20037;-76
2021/01/23 08:48:10;;;;;;;14.98;6.05;;;;;;;3.39;90.03;99548.03;5032685;28;20283;-78
2021/01/23 08:50:36;;;;;;;10.70;5.65;;;;;;;3.52;90.15;99548.41;5033657;28;20025;-76
2021/01/23 08:53:01;;;;;;;8.85;5.25;;;;;;;3.63;90.01;99542.88;5031287;28;20091;-77
2021/01/23 08:55:26;;;;;;;14.27;5.03;;;;;;;3.55;89.67;99544.28;5032858;28;20498;-78
2021/01/23 08:57:51;;;;;;;13.67;5.53;;;;;;;3.46;89.35;99544.00;5031921;28;20108;-78
2021/01/23 09:00:17;;;;;;;11.77;5.00;;;;;;;3.45;89.28;99549.91;5033055;28;20279;-77
2021/01/23 09:02:42;;;;;;;8.82;4.85;;;;;;;3.49;89.56;99553.41;5032227;28;20108;-76
2021/01/23 09:05:10;;;;;;;12.83;5.30;;;;;;;3.60;89.75;99550.38;5033640;28;20032;-76
2021/01/23 09:07:38;;;;;;;12.20;4.93;;;;;;;3.72;89.16;99555.84;5034616;28;20096;-77
2021/01/23 09:10:06;;;;;;;8.93;4.80;;;;;;;3.83;89.40;99558.69;5032740;28;20530;-75
2021/01/23 09:12:31;;;;;;;9.20;4.50;;;;;;;3.98;87.89;99555.75;5031222;28;20032;-77
2021/01/23 09:14:56;;;;;;;13.63;4.67;;;;;;;4.01;87.33;99545.66;5034939;28;20025;-76
2021/01/23 09:17:21;;;;;;;9.45;4.30;;;;;;;3.92;88.11;99555.56;5033321;28;20131;-76
2021/01/23 09:19:47;;;;;;;9.67;4.23;;;;;;;3.86;88.74;99550.28;5032870;28;20407;-77
2021/01/23 09:22:12;;;;;;;13.33;4.90;;;;;;;3.92;88.53;99547.94;5033469;28;20100;-78
2021/01/23 09:24:37;;;;;;;10.23;4.95;;;;;;;3.83;88.99;99548.53;5033355;28;20272;-77
2021/01/23 09:27:04;;;;;;;14.53;4.97;;;;;;;3.70;89.45;99547.31;5031579;28;20479;-76
2021/01/23 09:29:29;;;;;;;8.17;5.00;;;;;;;3.66;90.48;99548.03;5032016;28;20030;-77
2021/01/23 09:31:54;;;;;;;9.37;5.37;;;;;;;3.66;89.45;99547.16;5047946;28;20391;-76
2021/01/23 09:34:20;;;;;;;16.17;5.97;;;;;;;3.61;90.33;99543.63;5031557;28;20025;-77
2021/01/23 09:36:45;;;;;;;16.33;5.70;;;;;;;3.69;90.11;99553.19;5032777;28;20306;-77
2021/01/23 09:39:10;;;;;;;13.00;6.27;;;;;;;3.87;90.31;99547.78;5032280;28;20104;-76
2021/01/23 09:41:36;;;;;;;11.47;5.80;;;;;;;4.03;89.87;99544.91;5032399;28;20317;-77
2021/01/23 09:44:01;;;;;;;15.07;7.15;;;;;;;4.22;89.00;99551.34;5032845;28;20276;-76
2021/01/23 09:46:26;;;;;;;13.73;6.13;;;;;;;4.38;89.40;99545.03;5033059;28;20053;-77
2021/01/23 09:48:52;;;;;;;11.20;5.75;;;;;;;5.00;87.75;99541.56;5032563;28;20627;-76
2021/01/23 09:51:17;;;;;;;12.13;5.82;;;;;;;5.86;84.83;99538.47;5031271;28;20099;-74
2021/01/23 09:53:42;;;;;;;10.87;5.07;;;;;;;6.42;81.30;99528.59;5033338;28;20052;-77
2021/01/23 09:56:07;;;;;;;9.33;4.97;;;;;;;6.23;80.61;99530.78;5034343;28;20938;-78
2021/01/23 09:58:33;;;;;;;7.40;5.47;;;;;;;5.97;80.52;99537.03;5048515;28;20343;-78
2021/01/23 10:00:58;;;;;;;10.83;4.80;;;;;;;5.79;81.58;99536.59;5031392;28;20037;-76
2021/01/23 10:03:26;;;;;;;19.10;5.70;;;;;;;5.51;83.14;99540.22;5031563;28;20391;-78
2021/01/23 10:05:52;;;;;;;8.73;5.03;;;;;;;5.48;82.19;99541.00;5031569;28;20025;-77
2021/01/23 10:08:17;;;;;;;10.77;5.10;;;;;;;5.27;83.00;99536.31;5032174;28;20034;-76
2021/01/23 10:10:42;;;;;;;17.42;6.65;;;;;;;4.96;83.21;99528.75;5030889;28;20025;-78
2021/01/23 10:13:08;;;;;;;13.90;5.70;;;;;;;4.76;84.14;99530.78;5046999;28;20018;-78
2021/01/23 10:15:33;;;;;;;10.77;5.47;;;;;;;4.80;85.05;99530.03;5047378;28;20329;-76
2021/01/23 10:18:00;;;;;;;17.13;6.05;;;;;;;4.94;86.36;99531.25;5047107;28;20098;-78
2021/01/23 10:20:26;;;;;;;10.20;5.47;;;;;;;5.24;83.49;99536.22;5047396;28;20452;-77
2021/01/23 10:22:51;;;;;;;19.15;6.22;;;;;;;5.79;85.48;99526.41;5031991;28;20021;-79
2021/01/23 10:25:17;;;;;;;9.17;4.77;;;;;;;5.92;81.07;99516.56;5032257;28;20437;-77
2021/01/23 10:27:42;;;;;;;;;;;;;;;5.88;81.30;99521.53;5031892;28;20291;-78
2021/01/23 10:30:08;;;;;;;12.50;5.10;;;;;;;5.67;81.55;99523.59;5031391;28;19988;-77
2021/01/23 10:32:34;;;;;;;12.63;5.35;;;;;;;5.36;83.45;99530.56;5031271;28;20495;-76
2021/01/23 10:34:59;;;;;;;8.70;5.35;;;;;;;5.40;83.17;99532.34;5030769;28;20013;-78
2021/01/23 10:37:24;;;;;;;6.57;4.80;;;;;;;5.41;82.82;99528.97;5046943;28;20025;-79
2021/01/23 10:39:50;;;;;;;12.70;5.00;;;;;;;6.13;82.90;99528.88;5030399;28;20108;-77
2021/01/23 10:42:15;;;;;;;8.07;4.37;;;;;;;6.81;79.04;99525.91;5047191;28;20271;-77
2021/01/23 10:44:41;;;;;;;9.32;4.65;;;;;;;7.40;77.88;99524.31;5031631;28;20021;-77
2021/01/23 10:47:07;;;;;;;10.73;4.72;;;;;;;8.42;76.88;99527.41;5031725;28;20029;-78
2021/01/23 10:49:34;;;;;;;8.80;3.97;;;;;;;9.69;70.97;99524.22;5029962;28;20071;-79
2021/01/23 10:51:59;;;;;;;7.35;3.80;;;;;;;10.57;72.64;99516.94;5031512;28;20029;-78
2021/01/23 10:54:25;;;;;;;9.32;3.05;;;;;;;11.57;65.73;99520.41;5031515;28;20022;-79
2021/01/23 10:56:50;;;;;;;6.38;2.90;;;;;;;11.47;60.98;99519.56;5030864;28;20064;-77
2021/01/23 10:59:16;;;;;;;8.98;3.08;;;;;;;11.43;67.73;99517.88;5032008;28;20128;-78
2021/01/23 11:01:41;;;;;;;6.55;2.78;;;;;;;11.84;59.58;99520.38;5031496;28;20075;-79
2021/01/23 11:04:06;;;;;;;7.07;3.05;;;;;;;11.19;59.91;99518.72;5031131;28;20747;-76
2021/01/23 11:06:31;;;;;;;8.27;2.85;;;;;;;10.99;61.84;99514.44;5046922;28;20021;-78
2021/01/23 11:08:57;;;;;;;5.72;3.08;;;;;;;10.96;63.94;99510.16;5031576;28;20179;-77
2021/01/23 11:11:23;;;;;;;6.20;3.10;;;;;;;10.16;63.36;99503.94;5045988;28;20025;-78
2021/01/23 11:13:48;;;;;;;6.15;3.10;;;;;;;10.33;65.70;99510.88;5030270;28;20026;-79
2021/01/23 11:16:13;;;;;;;7.13;2.80;;;;;;;10.18;66.71;99519.34;5046551;28;20048;-78
2021/01/23 11:18:39;;;;;;;6.80;3.25;;;;;;;9.97;64.64;99520.09;5031204;28;20411;-78
2021/01/23 11:21:05;;;;;;;7.43;3.73;;;;;;;9.48;68.33;99527.53;5046022;28;20017;-76
2021/01/23 11:23:30;;;;;;;10.38;3.22;;;;;;;9.67;69.93;99531.06;5029500;28;20272;-78
2021/01/23 11:25:55;;;;;;;7.68;3.67;;;;;;;9.48;68.40;99529.22;5030717;28;20351;-78
2021/01/23 11:28:20;;;;;;;8.48;4.45;;;;;;;9.86;68.82;99527.75;5028598;28;20021;-76
2021/01/23 11:30:46;;;;;;;7.28;3.67;;;;;;;10.00;65.80;99525.25;5031023;28;20487;-76
2021/01/23 11:33:11;;;;;;;8.68;3.40;;;;;;;9.68;67.11;99536.19;5030716;28;20057;-79